sensor_id;sensor_type;location;lat;lon;timestamp;P1;durP1;ratioP1;P2;durP2;ratioP2
77938;SDS011;67136;47.546;21.630;2023-02-05T00:02:19;4.77;;;1.20;;
77938;SDS011;67136;47.546;21.630;2023-02-05T00:05:22;1.90;;;1.12;;
77938;SDS011;67136;47.546;21.630;2023-02-05T00:08:25;5.60;;;1.83;;
77938;SDS011;67136;47.546;21.630;2023-02-05T00:11:28;5.33;;;1.80;;
77938;SDS011;67136;47.546;21.630;2023-02-05T00:14:31;3.58;;;1.67;;
77938;SDS011;67136;47.546;21.630;2023-02-05T00:17:34;4.37;;;1.65;;
77938;SDS011;67136;47.546;21.630;2023-02-05T00:20:38;6.22;;;1.52;;
77938;SDS011;67136;47.546;21.630;2023-02-05T00:23:40;3.75;;;1.50;;
77938;SDS011;67136;47.546;21.630;2023-02-05T00:26:43;4.80;;;1.60;;
77938;SDS011;67136;47.546;21.630;2023-02-05T00:29:46;3.10;;;1.67;;
77938;SDS011;67136;47.546;21.630;2023-02-05T00:32:48;6.17;;;1.80;;
77938;SDS011;67136;47.546;21.630;2023-02-05T00:35:51;4.80;;;2.00;;
77938;SDS011;67136;47.546;21.630;2023-02-05T00:38:53;4.50;;;1.75;;
77938;SDS011;67136;47.546;21.630;2023-02-05T00:41:56;5.80;;;2.40;;
77938;SDS011;67136;47.546;21.630;2023-02-05T00:44:58;4.22;;;1.60;;
77938;SDS011;67136;47.546;21.630;2023-02-05T00:48:01;3.70;;;1.40;;
77938;SDS011;67136;47.546;21.630;2023-02-05T00:51:05;5.05;;;1.75;;
77938;SDS011;67136;47.546;21.630;2023-02-05T00:54:08;4.47;;;1.87;;
77938;SDS011;67136;47.546;21.630;2023-02-05T00:57:10;4.78;;;2.00;;
77938;SDS011;67136;47.546;21.630;2023-02-05T01:00:13;4.72;;;1.55;;
77938;SDS011;67136;47.546;21.630;2023-02-05T01:03:17;4.13;;;1.20;;
77938;SDS011;67136;47.546;21.630;2023-02-05T01:06:21;3.37;;;1.42;;
77938;SDS011;67136;47.546;21.630;2023-02-05T01:09:24;3.92;;;1.62;;
77938;SDS011;67136;47.546;21.630;2023-02-05T01:12:26;4.60;;;1.83;;
77938;SDS011;67136;47.546;21.630;2023-02-05T01:15:29;6.68;;;1.70;;
77938;SDS011;67136;47.546;21.630;2023-02-05T01:18:33;5.62;;;1.40;;
77938;SDS011;67136;47.546;21.630;2023-02-05T01:21:35;4.68;;;2.03;;
77938;SDS011;67136;47.546;21.630;2023-02-05T01:24:38;5.15;;;1.62;;
77938;SDS011;67136;47.546;21.630;2023-02-05T01:27:40;5.05;;;1.50;;
77938;SDS011;67136;47.546;21.630;2023-02-05T01:30:47;6.93;;;1.60;;
77938;SDS011;67136;47.546;21.630;2023-02-05T01:33:50;5.40;;;1.57;;
77938;SDS011;67136;47.546;21.630;2023-02-05T01:36:53;5.35;;;1.70;;
77938;SDS011;67136;47.546;21.630;2023-02-05T01:39:56;6.03;;;1.70;;
77938;SDS011;67136;47.546;21.630;2023-02-05T01:43:00;3.20;;;1.40;;
77938;SDS011;67136;47.546;21.630;2023-02-05T01:49:24;3.62;;;1.20;;
77938;SDS011;67136;47.546;21.630;2023-02-05T01:52:32;6.97;;;2.20;;
77938;SDS011;67136;47.546;21.630;2023-02-05T01:55:36;5.73;;;1.90;;
77938;SDS011;67136;47.546;21.630;2023-02-05T01:58:46;4.85;;;1.70;;
77938;SDS011;67136;47.546;21.630;2023-02-05T02:01:58;4.68;;;1.52;;
77938;SDS011;67136;47.546;21.630;2023-02-05T02:05:07;2.87;;;1.33;;
77938;SDS011;67136;47.546;21.630;2023-02-05T02:08:12;4.00;;;1.90;;
77938;SDS011;67136;47.546;21.630;2023-02-05T02:11:15;3.55;;;1.33;;
77938;SDS011;67136;47.546;21.630;2023-02-05T02:14:22;7.75;;;2.17;;
77938;SDS011;67136;47.546;21.630;2023-02-05T02:17:25;5.55;;;2.28;;
77938;SDS011;67136;47.546;21.630;2023-02-05T02:20:30;4.70;;;2.17;;
77938;SDS011;67136;47.546;21.630;2023-02-05T02:40:49;3.83;;;0.90;;
77938;SDS011;67136;47.546;21.630;2023-02-05T02:43:58;4.72;;;1.77;;
77938;SDS011;67136;47.546;21.630;2023-02-05T02:47:24;4.97;;;2.12;;
77938;SDS011;67136;47.546;21.630;2023-02-05T02:50:34;5.78;;;1.48;;
77938;SDS011;67136;47.546;21.630;2023-02-05T02:53:42;7.57;;;1.95;;
77938;SDS011;67136;47.546;21.630;2023-02-05T02:56:48;5.07;;;1.75;;
77938;SDS011;67136;47.546;21.630;2023-02-05T02:59:54;3.90;;;1.67;;
77938;SDS011;67136;47.546;21.630;2023-02-05T03:03:03;5.15;;;2.00;;
77938;SDS011;67136;47.546;21.630;2023-02-05T03:06:08;6.15;;;2.33;;
77938;SDS011;67136;47.546;21.630;2023-02-05T03:09:20;6.95;;;2.10;;
77938;SDS011;67136;47.546;21.630;2023-02-05T03:12:43;8.77;;;2.40;;
77938;SDS011;67136;47.546;21.630;2023-02-05T03:15:46;6.20;;;1.90;;
77938;SDS011;67136;47.546;21.630;2023-02-05T03:18:49;4.43;;;1.98;;
77938;SDS011;67136;47.546;21.630;2023-02-05T03:21:53;5.68;;;2.28;;
77938;SDS011;67136;47.546;21.630;2023-02-05T03:25:00;5.87;;;2.40;;
77938;SDS011;67136;47.546;21.630;2023-02-05T03:28:04;5.32;;;2.22;;
77938;SDS011;67136;47.546;21.630;2023-02-05T03:31:17;6.47;;;2.55;;
77938;SDS011;67136;47.546;21.630;2023-02-05T03:41:02;5.87;;;2.42;;
77938;SDS011;67136;47.546;21.630;2023-02-05T03:44:24;8.05;;;2.72;;
77938;SDS011;67136;47.546;21.630;2023-02-05T03:58:00;8.20;;;2.83;;
77938;SDS011;67136;47.546;21.630;2023-02-05T04:01:09;5.18;;;2.33;;
77938;SDS011;67136;47.546;21.630;2023-02-05T04:04:14;6.32;;;2.65;;
77938;SDS011;67136;47.546;21.630;2023-02-05T04:07:17;9.43;;;2.87;;
77938;SDS011;67136;47.546;21.630;2023-02-05T04:10:21;5.53;;;1.80;;
77938;SDS011;67136;47.546;21.630;2023-02-05T04:13:24;13.55;;;3.33;;
77938;SDS011;67136;47.546;21.630;2023-02-05T04:16:27;5.07;;;2.40;;
77938;SDS011;67136;47.546;21.630;2023-02-05T04:19:30;7.13;;;2.37;;
77938;SDS011;67136;47.546;21.630;2023-02-05T04:22:35;6.12;;;2.60;;
77938;SDS011;67136;47.546;21.630;2023-02-05T04:25:38;5.97;;;2.12;;
77938;SDS011;67136;47.546;21.630;2023-02-05T04:28:43;6.25;;;2.22;;
77938;SDS011;67136;47.546;21.630;2023-02-05T04:31:45;7.00;;;2.40;;
77938;SDS011;67136;47.546;21.630;2023-02-05T04:34:51;5.78;;;2.12;;
77938;SDS011;67136;47.546;21.630;2023-02-05T04:37:55;8.52;;;2.17;;
77938;SDS011;67136;47.546;21.630;2023-02-05T04:40:58;12.30;;;3.17;;
77938;SDS011;67136;47.546;21.630;2023-02-05T04:44:01;5.97;;;2.30;;
77938;SDS011;67136;47.546;21.630;2023-02-05T04:47:04;4.80;;;2.22;;
77938;SDS011;67136;47.546;21.630;2023-02-05T04:50:07;6.53;;;2.30;;
77938;SDS011;67136;47.546;21.630;2023-02-05T04:53:10;5.87;;;2.67;;
77938;SDS011;67136;47.546;21.630;2023-02-05T04:56:14;6.95;;;2.45;;
77938;SDS011;67136;47.546;21.630;2023-02-05T04:59:17;5.78;;;2.22;;
77938;SDS011;67136;47.546;21.630;2023-02-05T05:02:20;7.18;;;2.15;;
77938;SDS011;67136;47.546;21.630;2023-02-05T05:05:24;4.53;;;2.07;;
77938;SDS011;67136;47.546;21.630;2023-02-05T05:08:27;5.35;;;2.12;;
77938;SDS011;67136;47.546;21.630;2023-02-05T05:11:30;8.25;;;2.50;;
77938;SDS011;67136;47.546;21.630;2023-02-05T05:14:32;5.30;;;2.53;;
77938;SDS011;67136;47.546;21.630;2023-02-05T05:17:35;6.70;;;2.67;;
77938;SDS011;67136;47.546;21.630;2023-02-05T05:20:37;5.95;;;2.05;;
77938;SDS011;67136;47.546;21.630;2023-02-05T05:23:41;5.82;;;2.70;;
77938;SDS011;67136;47.546;21.630;2023-02-05T05:26:44;4.50;;;2.40;;
77938;SDS011;67136;47.546;21.630;2023-02-05T05:29:47;7.03;;;2.70;;
77938;SDS011;67136;47.546;21.630;2023-02-05T05:32:52;7.43;;;2.83;;
77938;SDS011;67136;47.546;21.630;2023-02-05T05:35:56;6.68;;;2.58;;
77938;SDS011;67136;47.546;21.630;2023-02-05T05:38:59;6.32;;;2.53;;
77938;SDS011;67136;47.546;21.630;2023-02-05T05:42:22;5.60;;;2.03;;
77938;SDS011;67136;47.546;21.630;2023-02-05T05:45:43;7.30;;;2.72;;
77938;SDS011;67136;47.546;21.630;2023-02-05T05:48:46;4.95;;;2.12;;
77938;SDS011;67136;47.546;21.630;2023-02-05T05:51:57;7.28;;;2.25;;
77938;SDS011;67136;47.546;21.630;2023-02-05T05:55:00;5.50;;;2.47;;
77938;SDS011;67136;47.546;21.630;2023-02-05T05:58:02;5.78;;;2.55;;
77938;SDS011;67136;47.546;21.630;2023-02-05T06:01:07;6.80;;;2.50;;
77938;SDS011;67136;47.546;21.630;2023-02-05T06:04:10;2.13;;;0.87;;
77938;SDS011;67136;47.546;21.630;2023-02-05T06:07:12;5.70;;;2.30;;
77938;SDS011;67136;47.546;21.630;2023-02-05T06:10:15;4.70;;;2.12;;
77938;SDS011;67136;47.546;21.630;2023-02-05T06:13:17;7.22;;;2.83;;
77938;SDS011;67136;47.546;21.630;2023-02-05T06:16:22;3.78;;;1.80;;
77938;SDS011;67136;47.546;21.630;2023-02-05T06:19:25;8.50;;;2.58;;
77938;SDS011;67136;47.546;21.630;2023-02-05T06:22:28;6.50;;;2.20;;
77938;SDS011;67136;47.546;21.630;2023-02-05T06:25:33;6.30;;;2.00;;
77938;SDS011;67136;47.546;21.630;2023-02-05T06:28:36;6.93;;;2.53;;
77938;SDS011;67136;47.546;21.630;2023-02-05T06:31:38;5.40;;;2.10;;
77938;SDS011;67136;47.546;21.630;2023-02-05T06:34:41;7.63;;;3.43;;
77938;SDS011;67136;47.546;21.630;2023-02-05T06:37:44;5.07;;;2.15;;
77938;SDS011;67136;47.546;21.630;2023-02-05T06:40:49;5.72;;;2.62;;
77938;SDS011;67136;47.546;21.630;2023-02-05T06:43:51;4.75;;;2.47;;
77938;SDS011;67136;47.546;21.630;2023-02-05T06:46:54;11.45;;;3.22;;
77938;SDS011;67136;47.546;21.630;2023-02-05T06:49:56;6.00;;;2.83;;
77938;SDS011;67136;47.546;21.630;2023-02-05T06:52:59;8.55;;;2.97;;
77938;SDS011;67136;47.546;21.630;2023-02-05T06:56:01;7.77;;;2.47;;
77938;SDS011;67136;47.546;21.630;2023-02-05T06:59:04;6.95;;;3.08;;
77938;SDS011;67136;47.546;21.630;2023-02-05T07:02:08;8.68;;;3.20;;
77938;SDS011;67136;47.546;21.630;2023-02-05T07:05:14;5.65;;;2.67;;
77938;SDS011;67136;47.546;21.630;2023-02-05T07:08:16;6.83;;;2.80;;
77938;SDS011;67136;47.546;21.630;2023-02-05T07:11:19;5.03;;;2.37;;
77938;SDS011;67136;47.546;21.630;2023-02-05T07:14:23;5.97;;;2.28;;
77938;SDS011;67136;47.546;21.630;2023-02-05T07:17:26;7.97;;;3.03;;
77938;SDS011;67136;47.546;21.630;2023-02-05T07:20:28;6.45;;;2.67;;
77938;SDS011;67136;47.546;21.630;2023-02-05T07:23:32;5.10;;;2.70;;
77938;SDS011;67136;47.546;21.630;2023-02-05T07:26:34;6.20;;;2.83;;
77938;SDS011;67136;47.546;21.630;2023-02-05T07:29:37;5.93;;;2.47;;
77938;SDS011;67136;47.546;21.630;2023-02-05T07:32:39;6.37;;;2.67;;
77938;SDS011;67136;47.546;21.630;2023-02-05T07:35:42;6.28;;;2.87;;
77938;SDS011;67136;47.546;21.630;2023-02-05T07:38:45;6.97;;;3.00;;
77938;SDS011;67136;47.546;21.630;2023-02-05T07:41:48;7.53;;;3.23;;
77938;SDS011;67136;47.546;21.630;2023-02-05T07:44:53;4.53;;;2.58;;
77938;SDS011;67136;47.546;21.630;2023-02-05T07:47:56;6.70;;;3.10;;
77938;SDS011;67136;47.546;21.630;2023-02-05T07:51:01;4.80;;;2.65;;
77938;SDS011;67136;47.546;21.630;2023-02-05T07:54:08;6.90;;;3.10;;
77938;SDS011;67136;47.546;21.630;2023-02-05T07:57:13;5.20;;;2.53;;
77938;SDS011;67136;47.546;21.630;2023-02-05T08:00:16;6.12;;;2.80;;
77938;SDS011;67136;47.546;21.630;2023-02-05T08:03:19;7.07;;;3.03;;
77938;SDS011;67136;47.546;21.630;2023-02-05T08:06:24;5.03;;;2.90;;
77938;SDS011;67136;47.546;21.630;2023-02-05T08:09:26;5.53;;;2.70;;
77938;SDS011;67136;47.546;21.630;2023-02-05T08:12:29;4.30;;;2.40;;
77938;SDS011;67136;47.546;21.630;2023-02-05T08:15:34;5.35;;;2.95;;
77938;SDS011;67136;47.546;21.630;2023-02-05T08:18:40;6.28;;;3.45;;
77938;SDS011;67136;47.546;21.630;2023-02-05T08:21:42;5.32;;;2.72;;
77938;SDS011;67136;47.546;21.630;2023-02-05T08:24:45;7.33;;;3.00;;
77938;SDS011;67136;47.546;21.630;2023-02-05T08:27:50;7.67;;;3.70;;
77938;SDS011;67136;47.546;21.630;2023-02-05T08:30:53;4.85;;;2.70;;
77938;SDS011;67136;47.546;21.630;2023-02-05T08:33:58;5.45;;;3.50;;
77938;SDS011;67136;47.546;21.630;2023-02-05T08:37:01;6.37;;;3.10;;
77938;SDS011;67136;47.546;21.630;2023-02-05T08:40:04;7.43;;;3.43;;
77938;SDS011;67136;47.546;21.630;2023-02-05T08:43:06;7.80;;;2.93;;
77938;SDS011;67136;47.546;21.630;2023-02-05T08:46:10;5.57;;;3.00;;
77938;SDS011;67136;47.546;21.630;2023-02-05T08:49:14;8.80;;;3.15;;
77938;SDS011;67136;47.546;21.630;2023-02-05T08:52:18;7.35;;;3.28;;
77938;SDS011;67136;47.546;21.630;2023-02-05T08:55:21;6.03;;;2.50;;
77938;SDS011;67136;47.546;21.630;2023-02-05T08:58:24;7.80;;;3.10;;
77938;SDS011;67136;47.546;21.630;2023-02-05T09:01:27;5.30;;;3.00;;
77938;SDS011;67136;47.546;21.630;2023-02-05T09:04:30;4.93;;;2.83;;
77938;SDS011;67136;47.546;21.630;2023-02-05T09:07:32;4.55;;;2.22;;
77938;SDS011;67136;47.546;21.630;2023-02-05T09:10:35;5.77;;;3.10;;
77938;SDS011;67136;47.546;21.630;2023-02-05T09:13:37;5.40;;;2.90;;
77938;SDS011;67136;47.546;21.630;2023-02-05T09:16:41;5.72;;;2.72;;
77938;SDS011;67136;47.546;21.630;2023-02-05T09:19:43;5.55;;;2.50;;
77938;SDS011;67136;47.546;21.630;2023-02-05T09:22:46;4.70;;;2.50;;
77938;SDS011;67136;47.546;21.630;2023-02-05T09:25:49;4.33;;;2.17;;
77938;SDS011;67136;47.546;21.630;2023-02-05T09:28:51;5.07;;;2.40;;
77938;SDS011;67136;47.546;21.630;2023-02-05T09:31:54;5.10;;;2.70;;
77938;SDS011;67136;47.546;21.630;2023-02-05T09:34:57;4.18;;;2.00;;
77938;SDS011;67136;47.546;21.630;2023-02-05T09:37:59;4.57;;;2.42;;
77938;SDS011;67136;47.546;21.630;2023-02-05T09:41:07;4.23;;;2.30;;
77938;SDS011;67136;47.546;21.630;2023-02-05T09:44:37;4.00;;;2.07;;
77938;SDS011;67136;47.546;21.630;2023-02-05T09:51:08;2.72;;;1.70;;
77938;SDS011;67136;47.546;21.630;2023-02-05T09:54:26;4.55;;;1.87;;
77938;SDS011;67136;47.546;21.630;2023-02-05T09:57:33;2.83;;;1.77;;
77938;SDS011;67136;47.546;21.630;2023-02-05T10:00:43;5.23;;;1.87;;
77938;SDS011;67136;47.546;21.630;2023-02-05T10:03:56;2.78;;;1.48;;
77938;SDS011;67136;47.546;21.630;2023-02-05T10:10:32;2.87;;;1.70;;
77938;SDS011;67136;47.546;21.630;2023-02-05T10:17:41;2.40;;;1.50;;
77938;SDS011;67136;47.546;21.630;2023-02-05T10:27:18;3.50;;;1.90;;
77938;SDS011;67136;47.546;21.630;2023-02-05T10:30:27;3.33;;;1.80;;
77938;SDS011;67136;47.546;21.630;2023-02-05T10:33:49;2.67;;;1.77;;
77938;SDS011;67136;47.546;21.630;2023-02-05T10:36:57;2.75;;;1.50;;
77938;SDS011;67136;47.546;21.630;2023-02-05T10:40:10;2.75;;;1.70;;
77938;SDS011;67136;47.546;21.630;2023-02-05T10:43:21;3.55;;;1.98;;
77938;SDS011;67136;47.546;21.630;2023-02-05T10:46:29;3.00;;;1.80;;
77938;SDS011;67136;47.546;21.630;2023-02-05T10:49:47;4.17;;;2.10;;
77938;SDS011;67136;47.546;21.630;2023-02-05T10:52:57;3.35;;;2.20;;
77938;SDS011;67136;47.546;21.630;2023-02-05T10:56:00;3.28;;;1.92;;
77938;SDS011;67136;47.546;21.630;2023-02-05T10:59:04;4.72;;;2.28;;
77938;SDS011;67136;47.546;21.630;2023-02-05T11:02:08;3.97;;;2.40;;
77938;SDS011;67136;47.546;21.630;2023-02-05T11:05:14;4.47;;;2.53;;
77938;SDS011;67136;47.546;21.630;2023-02-05T11:08:39;3.28;;;1.95;;
77938;SDS011;67136;47.546;21.630;2023-02-05T11:11:45;3.05;;;2.00;;
77938;SDS011;67136;47.546;21.630;2023-02-05T11:14:59;3.35;;;2.00;;
77938;SDS011;67136;47.546;21.630;2023-02-05T11:18:04;3.43;;;2.10;;
77938;SDS011;67136;47.546;21.630;2023-02-05T11:21:08;3.43;;;1.87;;
77938;SDS011;67136;47.546;21.630;2023-02-05T11:24:20;2.35;;;1.65;;
77938;SDS011;67136;47.546;21.630;2023-02-05T11:27:40;3.42;;;2.25;;
77938;SDS011;67136;47.546;21.630;2023-02-05T11:30:53;2.97;;;1.85;;
77938;SDS011;67136;47.546;21.630;2023-02-05T11:37:25;4.30;;;2.50;;
77938;SDS011;67136;47.546;21.630;2023-02-05T11:40:29;4.03;;;2.70;;
77938;SDS011;67136;47.546;21.630;2023-02-05T11:43:37;4.82;;;2.90;;
77938;SDS011;67136;47.546;21.630;2023-02-05T11:46:42;4.28;;;2.37;;
77938;SDS011;67136;47.546;21.630;2023-02-05T11:49:48;4.03;;;2.67;;
77938;SDS011;67136;47.546;21.630;2023-02-05T11:52:55;4.43;;;2.20;;
77938;SDS011;67136;47.546;21.630;2023-02-05T11:56:17;4.85;;;2.30;;
77938;SDS011;67136;47.546;21.630;2023-02-05T11:59:26;5.18;;;2.58;;
77938;SDS011;67136;47.546;21.630;2023-02-05T12:02:30;3.70;;;2.20;;
77938;SDS011;67136;47.546;21.630;2023-02-05T12:05:41;4.90;;;2.60;;
77938;SDS011;67136;47.546;21.630;2023-02-05T12:08:52;4.83;;;2.50;;
77938;SDS011;67136;47.546;21.630;2023-02-05T12:15:22;4.37;;;2.58;;
77938;SDS011;67136;47.546;21.630;2023-02-05T12:18:36;5.12;;;2.58;;
77938;SDS011;67136;47.546;21.630;2023-02-05T12:25:26;5.30;;;2.80;;
77938;SDS011;67136;47.546;21.630;2023-02-05T12:39:00;5.50;;;2.00;;
77938;SDS011;67136;47.546;21.630;2023-02-05T12:42:10;4.93;;;2.50;;
77938;SDS011;67136;47.546;21.630;2023-02-05T12:58:08;4.17;;;2.20;;
77938;SDS011;67136;47.546;21.630;2023-02-05T13:01:16;3.95;;;2.12;;
77938;SDS011;67136;47.546;21.630;2023-02-05T13:04:25;4.28;;;2.05;;
77938;SDS011;67136;47.546;21.630;2023-02-05T13:11:05;4.23;;;2.03;;
77938;SDS011;67136;47.546;21.630;2023-02-05T13:14:18;4.33;;;2.17;;
77938;SDS011;67136;47.546;21.630;2023-02-05T13:17:28;4.25;;;2.15;;
77938;SDS011;67136;47.546;21.630;2023-02-05T13:20:38;4.32;;;2.00;;
77938;SDS011;67136;47.546;21.630;2023-02-05T13:24:20;4.07;;;2.22;;
77938;SDS011;67136;47.546;21.630;2023-02-05T13:27:50;4.73;;;1.97;;
77938;SDS011;67136;47.546;21.630;2023-02-05T13:34:32;2.78;;;1.80;;
77938;SDS011;67136;47.546;21.630;2023-02-05T13:37:41;4.95;;;2.00;;
77938;SDS011;67136;47.546;21.630;2023-02-05T13:47:34;4.47;;;2.27;;
77938;SDS011;67136;47.546;21.630;2023-02-05T13:51:10;4.25;;;2.03;;
77938;SDS011;67136;47.546;21.630;2023-02-05T14:01:05;4.83;;;2.33;;
77938;SDS011;67136;47.546;21.630;2023-02-05T14:07:37;3.58;;;1.87;;
77938;SDS011;67136;47.546;21.630;2023-02-05T14:10:47;3.67;;;1.90;;
77938;SDS011;67136;47.546;21.630;2023-02-05T14:14:13;5.28;;;2.35;;
77938;SDS011;67136;47.546;21.630;2023-02-05T14:20:30;6.03;;;2.80;;
77938;SDS011;67136;47.546;21.630;2023-02-05T14:26:53;6.85;;;3.28;;
77938;SDS011;67136;47.546;21.630;2023-02-05T14:33:46;6.20;;;3.10;;
77938;SDS011;67136;47.546;21.630;2023-02-05T14:36:50;7.13;;;3.70;;
77938;SDS011;67136;47.546;21.630;2023-02-05T14:39:52;6.80;;;3.37;;
77938;SDS011;67136;47.546;21.630;2023-02-05T14:42:56;9.00;;;3.95;;
77938;SDS011;67136;47.546;21.630;2023-02-05T14:52:36;6.73;;;4.00;;
77938;SDS011;67136;47.546;21.630;2023-02-05T14:55:45;7.85;;;3.60;;
77938;SDS011;67136;47.546;21.630;2023-02-05T14:58:55;9.00;;;3.87;;
77938;SDS011;67136;47.546;21.630;2023-02-05T15:02:01;8.25;;;4.00;;
77938;SDS011;67136;47.546;21.630;2023-02-05T15:05:04;6.73;;;3.87;;
77938;SDS011;67136;47.546;21.630;2023-02-05T15:08:16;7.37;;;3.50;;
77938;SDS011;67136;47.546;21.630;2023-02-05T15:11:44;7.80;;;3.92;;
77938;SDS011;67136;47.546;21.630;2023-02-05T15:18:42;9.40;;;4.10;;
77938;SDS011;67136;47.546;21.630;2023-02-05T15:21:48;12.87;;;4.33;;
77938;SDS011;67136;47.546;21.630;2023-02-05T15:24:53;11.23;;;4.80;;
77938;SDS011;67136;47.546;21.630;2023-02-05T15:28:00;10.00;;;4.47;;
77938;SDS011;67136;47.546;21.630;2023-02-05T15:31:07;9.98;;;4.15;;
77938;SDS011;67136;47.546;21.630;2023-02-05T15:34:35;8.05;;;4.20;;
77938;SDS011;67136;47.546;21.630;2023-02-05T15:37:54;9.97;;;4.07;;
77938;SDS011;67136;47.546;21.630;2023-02-05T15:41:03;7.00;;;3.70;;
77938;SDS011;67136;47.546;21.630;2023-02-05T15:44:17;9.65;;;4.07;;
77938;SDS011;67136;47.546;21.630;2023-02-05T15:47:23;9.50;;;4.32;;
77938;SDS011;67136;47.546;21.630;2023-02-05T15:50:28;5.68;;;2.83;;
77938;SDS011;67136;47.546;21.630;2023-02-05T15:53:39;8.97;;;3.97;;
77938;SDS011;67136;47.546;21.630;2023-02-05T15:56:47;12.27;;;4.25;;
77938;SDS011;67136;47.546;21.630;2023-02-05T15:59:53;9.38;;;3.97;;
77938;SDS011;67136;47.546;21.630;2023-02-05T16:02:59;11.05;;;4.35;;
77938;SDS011;67136;47.546;21.630;2023-02-05T16:06:04;8.70;;;3.78;;
77938;SDS011;67136;47.546;21.630;2023-02-05T16:09:13;11.30;;;5.03;;
77938;SDS011;67136;47.546;21.630;2023-02-05T16:12:18;10.60;;;4.60;;
77938;SDS011;67136;47.546;21.630;2023-02-05T16:15:20;11.95;;;4.82;;
77938;SDS011;67136;47.546;21.630;2023-02-05T16:21:40;14.40;;;4.90;;
77938;SDS011;67136;47.546;21.630;2023-02-05T16:24:49;11.43;;;5.05;;
77938;SDS011;67136;47.546;21.630;2023-02-05T16:27:55;15.43;;;5.20;;
77938;SDS011;67136;47.546;21.630;2023-02-05T16:31:00;12.33;;;5.63;;
77938;SDS011;67136;47.546;21.630;2023-02-05T16:34:07;15.77;;;4.90;;
77938;SDS011;67136;47.546;21.630;2023-02-05T16:37:24;15.77;;;5.80;;
77938;SDS011;67136;47.546;21.630;2023-02-05T16:40:32;11.00;;;4.60;;
77938;SDS011;67136;47.546;21.630;2023-02-05T16:43:40;11.83;;;4.70;;
77938;SDS011;67136;47.546;21.630;2023-02-05T16:46:42;9.85;;;4.57;;
77938;SDS011;67136;47.546;21.630;2023-02-05T16:49:46;12.00;;;5.40;;
77938;SDS011;67136;47.546;21.630;2023-02-05T16:52:55;14.00;;;5.43;;
77938;SDS011;67136;47.546;21.630;2023-02-05T16:56:00;15.00;;;5.50;;
77938;SDS011;67136;47.546;21.630;2023-02-05T16:59:21;11.95;;;4.65;;
77938;SDS011;67136;47.546;21.630;2023-02-05T17:02:27;10.43;;;4.78;;
77938;SDS011;67136;47.546;21.630;2023-02-05T17:05:34;13.38;;;5.62;;
77938;SDS011;67136;47.546;21.630;2023-02-05T17:08:38;10.77;;;4.77;;
77938;SDS011;67136;47.546;21.630;2023-02-05T17:11:41;12.70;;;5.68;;
77938;SDS011;67136;47.546;21.630;2023-02-05T17:14:55;12.80;;;5.25;;
77938;SDS011;67136;47.546;21.630;2023-02-05T17:18:16;13.40;;;5.70;;
77938;SDS011;67136;47.546;21.630;2023-02-05T17:21:46;17.17;;;5.63;;
77938;SDS011;67136;47.546;21.630;2023-02-05T17:24:49;17.02;;;5.68;;
77938;SDS011;67136;47.546;21.630;2023-02-05T17:27:53;14.10;;;5.53;;
77938;SDS011;67136;47.546;21.630;2023-02-05T17:30:56;12.50;;;5.00;;
77938;SDS011;67136;47.546;21.630;2023-02-05T17:34:00;11.32;;;4.47;;
77938;SDS011;67136;47.546;21.630;2023-02-05T17:37:02;11.70;;;4.87;;
77938;SDS011;67136;47.546;21.630;2023-02-05T17:40:06;11.95;;;4.90;;
77938;SDS011;67136;47.546;21.630;2023-02-05T17:43:09;10.93;;;5.00;;
77938;SDS011;67136;47.546;21.630;2023-02-05T17:46:12;9.25;;;4.78;;
77938;SDS011;67136;47.546;21.630;2023-02-05T17:49:15;10.38;;;4.57;;
77938;SDS011;67136;47.546;21.630;2023-02-05T17:52:18;10.27;;;4.00;;
77938;SDS011;67136;47.546;21.630;2023-02-05T17:55:21;10.50;;;4.63;;
77938;SDS011;67136;47.546;21.630;2023-02-05T17:58:23;10.38;;;4.80;;
77938;SDS011;67136;47.546;21.630;2023-02-05T18:01:26;12.93;;;4.30;;
77938;SDS011;67136;47.546;21.630;2023-02-05T18:04:29;13.82;;;4.43;;
77938;SDS011;67136;47.546;21.630;2023-02-05T18:07:50;12.70;;;5.30;;
77938;SDS011;67136;47.546;21.630;2023-02-05T18:10:58;8.70;;;4.25;;
77938;SDS011;67136;47.546;21.630;2023-02-05T18:14:02;8.52;;;3.92;;
77938;SDS011;67136;47.546;21.630;2023-02-05T18:17:04;10.45;;;5.07;;
77938;SDS011;67136;47.546;21.630;2023-02-05T18:20:07;13.33;;;5.23;;
77938;SDS011;67136;47.546;21.630;2023-02-05T18:23:11;10.93;;;4.47;;
77938;SDS011;67136;47.546;21.630;2023-02-05T18:26:25;12.43;;;4.72;;
77938;SDS011;67136;47.546;21.630;2023-02-05T18:29:28;9.73;;;4.82;;
77938;SDS011;67136;47.546;21.630;2023-02-05T18:32:31;11.23;;;4.83;;
77938;SDS011;67136;47.546;21.630;2023-02-05T18:35:35;8.20;;;3.78;;
77938;SDS011;67136;47.546;21.630;2023-02-05T18:38:39;11.90;;;5.43;;
77938;SDS011;67136;47.546;21.630;2023-02-05T18:41:44;12.55;;;5.37;;
77938;SDS011;67136;47.546;21.630;2023-02-05T18:44:46;10.20;;;4.87;;
77938;SDS011;67136;47.546;21.630;2023-02-05T18:47:49;11.20;;;4.68;;
77938;SDS011;67136;47.546;21.630;2023-02-05T18:50:55;8.55;;;4.12;;
77938;SDS011;67136;47.546;21.630;2023-02-05T18:53:58;11.25;;;5.25;;
77938;SDS011;67136;47.546;21.630;2023-02-05T18:57:01;12.47;;;4.77;;
77938;SDS011;67136;47.546;21.630;2023-02-05T19:00:04;13.02;;;4.43;;
77938;SDS011;67136;47.546;21.630;2023-02-05T19:03:07;13.15;;;4.70;;
77938;SDS011;67136;47.546;21.630;2023-02-05T19:06:11;11.43;;;4.60;;
77938;SDS011;67136;47.546;21.630;2023-02-05T19:09:14;14.47;;;4.70;;
77938;SDS011;67136;47.546;21.630;2023-02-05T19:12:17;11.18;;;5.03;;
77938;SDS011;67136;47.546;21.630;2023-02-05T19:15:20;8.98;;;4.62;;
77938;SDS011;67136;47.546;21.630;2023-02-05T19:18:23;13.43;;;4.65;;
77938;SDS011;67136;47.546;21.630;2023-02-05T19:21:25;10.90;;;5.10;;
77938;SDS011;67136;47.546;21.630;2023-02-05T19:24:30;10.30;;;5.53;;
77938;SDS011;67136;47.546;21.630;2023-02-05T19:27:33;13.30;;;5.15;;
77938;SDS011;67136;47.546;21.630;2023-02-05T19:30:38;15.80;;;5.70;;
77938;SDS011;67136;47.546;21.630;2023-02-05T19:33:40;12.73;;;5.20;;
77938;SDS011;67136;47.546;21.630;2023-02-05T19:36:43;13.13;;;5.25;;
77938;SDS011;67136;47.546;21.630;2023-02-05T19:39:46;13.88;;;5.62;;
77938;SDS011;67136;47.546;21.630;2023-02-05T19:42:51;10.13;;;4.50;;
77938;SDS011;67136;47.546;21.630;2023-02-05T19:45:53;13.68;;;5.62;;
77938;SDS011;67136;47.546;21.630;2023-02-05T19:49:00;14.30;;;5.15;;
77938;SDS011;67136;47.546;21.630;2023-02-05T19:52:05;9.80;;;4.68;;
77938;SDS011;67136;47.546;21.630;2023-02-05T19:55:10;12.95;;;4.65;;
77938;SDS011;67136;47.546;21.630;2023-02-05T19:58:13;10.20;;;4.50;;
77938;SDS011;67136;47.546;21.630;2023-02-05T20:01:27;12.05;;;4.68;;
77938;SDS011;67136;47.546;21.630;2023-02-05T20:04:31;12.13;;;4.55;;
77938;SDS011;67136;47.546;21.630;2023-02-05T20:07:34;12.32;;;5.00;;
77938;SDS011;67136;47.546;21.630;2023-02-05T20:10:39;12.73;;;5.10;;
77938;SDS011;67136;47.546;21.630;2023-02-05T20:13:42;12.80;;;4.75;;
77938;SDS011;67136;47.546;21.630;2023-02-05T20:16:45;11.50;;;4.75;;
77938;SDS011;67136;47.546;21.630;2023-02-05T20:19:49;8.40;;;3.70;;
77938;SDS011;67136;47.546;21.630;2023-02-05T20:22:56;11.05;;;4.82;;
77938;SDS011;67136;47.546;21.630;2023-02-05T20:25:58;11.88;;;4.60;;
77938;SDS011;67136;47.546;21.630;2023-02-05T20:29:05;9.60;;;3.35;;
77938;SDS011;67136;47.546;21.630;2023-02-05T20:32:26;11.20;;;3.83;;
77938;SDS011;67136;47.546;21.630;2023-02-05T20:35:29;9.80;;;4.00;;
77938;SDS011;67136;47.546;21.630;2023-02-05T20:38:32;12.07;;;4.65;;